sensor_id;sensor_type;location;lat;lon;timestamp;P1;durP1;ratioP1;P2;durP2;ratioP2
1721;SDS011;858;53.190;8.596;2022-11-20T00:01:47;28.13;;;19.03;;
1721;SDS011;858;53.190;8.596;2022-11-20T00:04:13;26.50;;;18.57;;
1721;SDS011;858;53.190;8.596;2022-11-20T00:06:40;27.73;;;18.70;;
1721;SDS011;858;53.190;8.596;2022-11-20T00:09:09;24.97;;;18.97;;
1721;SDS011;858;53.190;8.596;2022-11-20T00:11:35;27.10;;;20.13;;
1721;SDS011;858;53.190;8.596;2022-11-20T00:14:02;27.23;;;18.63;;
1721;SDS011;858;53.190;8.596;2022-11-20T00:16:31;24.87;;;17.13;;
1721;SDS011;858;53.190;8.596;2022-11-20T00:18:59;25.03;;;18.57;;
1721;SDS011;858;53.190;8.596;2022-11-20T00:21:26;31.23;;;19.33;;
1721;SDS011;858;53.190;8.596;2022-11-20T00:24:04;27.40;;;18.70;;
1721;SDS011;858;53.190;8.596;2022-11-20T00:26:31;25.37;;;19.10;;
1721;SDS011;858;53.190;8.596;2022-11-20T00:28:58;27.33;;;19.20;;
1721;SDS011;858;53.190;8.596;2022-11-20T00:31:25;26.57;;;19.97;;
1721;SDS011;858;53.190;8.596;2022-11-20T00:33:53;27.80;;;20.03;;
1721;SDS011;858;53.190;8.596;2022-11-20T00:36:21;34.80;;;22.20;;
1721;SDS011;858;53.190;8.596;2022-11-20T00:38:50;27.63;;;18.90;;
1721;SDS011;858;53.190;8.596;2022-11-20T00:41:17;27.77;;;20.10;;
1721;SDS011;858;53.190;8.596;2022-11-20T00:43:43;27.80;;;19.70;;
1721;SDS011;858;53.190;8.596;2022-11-20T00:46:12;27.07;;;20.47;;
1721;SDS011;858;53.190;8.596;2022-11-20T00:48:39;26.77;;;19.83;;
1721;SDS011;858;53.190;8.596;2022-11-20T00:51:07;32.47;;;19.47;;
1721;SDS011;858;53.190;8.596;2022-11-20T00:53:36;27.50;;;20.00;;
1721;SDS011;858;53.190;8.596;2022-11-20T00:56:03;28.90;;;19.57;;
1721;SDS011;858;53.190;8.596;2022-11-20T00:58:30;25.67;;;18.83;;
1721;SDS011;858;53.190;8.596;2022-11-20T01:01:02;27.50;;;19.33;;
1721;SDS011;858;53.190;8.596;2022-11-20T01:03:30;40.20;;;20.10;;
1721;SDS011;858;53.190;8.596;2022-11-20T01:05:59;28.07;;;19.80;;
1721;SDS011;858;53.190;8.596;2022-11-20T01:08:29;27.47;;;19.63;;
1721;SDS011;858;53.190;8.596;2022-11-20T01:11:00;28.10;;;19.83;;
1721;SDS011;858;53.190;8.596;2022-11-20T01:13:27;31.57;;;19.63;;
1721;SDS011;858;53.190;8.596;2022-11-20T01:16:06;32.70;;;21.27;;
1721;SDS011;858;53.190;8.596;2022-11-20T01:18:33;31.50;;;20.40;;
1721;SDS011;858;53.190;8.596;2022-11-20T01:21:01;25.33;;;17.23;;
1721;SDS011;858;53.190;8.596;2022-11-20T01:23:34;29.13;;;18.53;;
1721;SDS011;858;53.190;8.596;2022-11-20T01:26:02;29.17;;;18.13;;
1721;SDS011;858;53.190;8.596;2022-11-20T01:28:29;29.10;;;19.80;;
1721;SDS011;858;53.190;8.596;2022-11-20T01:30:55;27.30;;;18.17;;
1721;SDS011;858;53.190;8.596;2022-11-20T01:33:24;24.93;;;17.20;;
1721;SDS011;858;53.190;8.596;2022-11-20T01:35:53;28.07;;;19.50;;
1721;SDS011;858;53.190;8.596;2022-11-20T01:38:30;26.67;;;18.00;;
1721;SDS011;858;53.190;8.596;2022-11-20T01:40:57;23.67;;;16.93;;
1721;SDS011;858;53.190;8.596;2022-11-20T01:43:24;26.10;;;19.17;;
1721;SDS011;858;53.190;8.596;2022-11-20T01:45:58;28.63;;;19.57;;
1721;SDS011;858;53.190;8.596;2022-11-20T01:48:28;25.10;;;17.50;;
1721;SDS011;858;53.190;8.596;2022-11-20T01:50:56;27.07;;;16.97;;
1721;SDS011;858;53.190;8.596;2022-11-20T01:53:26;27.13;;;18.10;;
1721;SDS011;858;53.190;8.596;2022-11-20T01:55:56;26.90;;;17.33;;
1721;SDS011;858;53.190;8.596;2022-11-20T01:58:27;26.10;;;17.37;;
1721;SDS011;858;53.190;8.596;2022-11-20T02:00:56;24.30;;;16.63;;
1721;SDS011;858;53.190;8.596;2022-11-20T02:03:23;26.03;;;17.10;;
1721;SDS011;858;53.190;8.596;2022-11-20T02:05:52;29.30;;;18.83;;
1721;SDS011;858;53.190;8.596;2022-11-20T02:08:28;25.63;;;18.40;;
1721;SDS011;858;53.190;8.596;2022-11-20T02:10:57;29.10;;;17.07;;
1721;SDS011;858;53.190;8.596;2022-11-20T02:13:24;25.70;;;17.37;;
1721;SDS011;858;53.190;8.596;2022-11-20T02:16:10;30.37;;;20.33;;
1721;SDS011;858;53.190;8.596;2022-11-20T02:18:40;32.40;;;18.47;;
1721;SDS011;858;53.190;8.596;2022-11-20T02:21:07;28.13;;;17.07;;
1721;SDS011;858;53.190;8.596;2022-11-20T02:23:50;29.80;;;16.33;;
1721;SDS011;858;53.190;8.596;2022-11-20T02:26:17;23.50;;;16.53;;
1721;SDS011;858;53.190;8.596;2022-11-20T02:28:45;25.80;;;18.50;;
1721;SDS011;858;53.190;8.596;2022-11-20T02:31:12;24.30;;;17.30;;
1721;SDS011;858;53.190;8.596;2022-11-20T02:33:38;27.43;;;16.90;;
1721;SDS011;858;53.190;8.596;2022-11-20T02:36:08;27.13;;;17.27;;
1721;SDS011;858;53.190;8.596;2022-11-20T02:38:36;27.00;;;18.60;;
1721;SDS011;858;53.190;8.596;2022-11-20T02:41:05;25.03;;;16.20;;
1721;SDS011;858;53.190;8.596;2022-11-20T02:43:33;23.27;;;16.80;;
1721;SDS011;858;53.190;8.596;2022-11-20T02:45:59;25.40;;;16.10;;
1721;SDS011;858;53.190;8.596;2022-11-20T02:48:26;27.70;;;16.50;;
1721;SDS011;858;53.190;8.596;2022-11-20T02:50:57;22.00;;;15.73;;
1721;SDS011;858;53.190;8.596;2022-11-20T02:53:24;26.93;;;16.50;;
1721;SDS011;858;53.190;8.596;2022-11-20T02:55:50;25.27;;;15.33;;
1721;SDS011;858;53.190;8.596;2022-11-20T02:58:21;26.40;;;17.00;;
1721;SDS011;858;53.190;8.596;2022-11-20T03:00:49;21.67;;;14.30;;
1721;SDS011;858;53.190;8.596;2022-11-20T03:03:15;22.63;;;16.87;;
1721;SDS011;858;53.190;8.596;2022-11-20T03:05:42;29.07;;;16.47;;
1721;SDS011;858;53.190;8.596;2022-11-20T03:08:09;23.87;;;15.10;;
1721;SDS011;858;53.190;8.596;2022-11-20T03:10:35;21.33;;;13.80;;
1721;SDS011;858;53.190;8.596;2022-11-20T03:13:02;23.93;;;14.03;;
1721;SDS011;858;53.190;8.596;2022-11-20T03:15:30;21.07;;;14.60;;
1721;SDS011;858;53.190;8.596;2022-11-20T03:17:56;21.20;;;13.43;;
1721;SDS011;858;53.190;8.596;2022-11-20T03:20:23;20.80;;;12.97;;
1721;SDS011;858;53.190;8.596;2022-11-20T03:22:49;20.10;;;14.63;;
1721;SDS011;858;53.190;8.596;2022-11-20T03:25:20;21.83;;;14.80;;
1721;SDS011;858;53.190;8.596;2022-11-20T03:27:47;22.53;;;14.70;;
1721;SDS011;858;53.190;8.596;2022-11-20T03:30:16;23.60;;;13.60;;
1721;SDS011;858;53.190;8.596;2022-11-20T03:32:43;22.50;;;13.37;;
1721;SDS011;858;53.190;8.596;2022-11-20T03:35:10;19.40;;;12.80;;
1721;SDS011;858;53.190;8.596;2022-11-20T03:37:37;20.67;;;13.13;;
1721;SDS011;858;53.190;8.596;2022-11-20T03:40:06;18.83;;;13.17;;
1721;SDS011;858;53.190;8.596;2022-11-20T03:42:32;22.20;;;14.10;;
1721;SDS011;858;53.190;8.596;2022-11-20T03:45:11;22.80;;;14.00;;
1721;SDS011;858;53.190;8.596;2022-11-20T03:47:38;22.37;;;14.00;;
1721;SDS011;858;53.190;8.596;2022-11-20T03:50:10;19.43;;;11.93;;
1721;SDS011;858;53.190;8.596;2022-11-20T03:52:37;18.40;;;12.50;;
1721;SDS011;858;53.190;8.596;2022-11-20T03:55:04;17.50;;;11.97;;
1721;SDS011;858;53.190;8.596;2022-11-20T03:57:33;17.03;;;12.77;;
1721;SDS011;858;53.190;8.596;2022-11-20T04:00:00;21.87;;;12.80;;
1721;SDS011;858;53.190;8.596;2022-11-20T04:02:27;20.97;;;13.30;;
1721;SDS011;858;53.190;8.596;2022-11-20T04:04:53;19.63;;;13.13;;
1721;SDS011;858;53.190;8.596;2022-11-20T04:07:21;20.50;;;12.27;;
1721;SDS011;858;53.190;8.596;2022-11-20T04:09:51;15.53;;;12.13;;
1721;SDS011;858;53.190;8.596;2022-11-20T04:12:17;19.50;;;13.40;;
1721;SDS011;858;53.190;8.596;2022-11-20T04:14:44;16.83;;;12.40;;
1721;SDS011;858;53.190;8.596;2022-11-20T04:17:10;19.27;;;12.33;;
1721;SDS011;858;53.190;8.596;2022-11-20T04:19:37;20.70;;;12.73;;
1721;SDS011;858;53.190;8.596;2022-11-20T04:22:04;22.50;;;13.60;;
1721;SDS011;858;53.190;8.596;2022-11-20T04:24:32;15.93;;;12.30;;
1721;SDS011;858;53.190;8.596;2022-11-20T04:26:58;21.47;;;14.40;;
1721;SDS011;858;53.190;8.596;2022-11-20T04:29:25;22.73;;;14.03;;
1721;SDS011;858;53.190;8.596;2022-11-20T04:31:52;18.27;;;12.60;;
1721;SDS011;858;53.190;8.596;2022-11-20T04:34:18;24.97;;;12.33;;
1721;SDS011;858;53.190;8.596;2022-11-20T04:36:45;19.87;;;13.33;;
1721;SDS011;858;53.190;8.596;2022-11-20T04:39:17;20.27;;;12.27;;
1721;SDS011;858;53.190;8.596;2022-11-20T04:41:45;20.10;;;12.30;;
1721;SDS011;858;53.190;8.596;2022-11-20T04:44:12;15.17;;;11.03;;
1721;SDS011;858;53.190;8.596;2022-11-20T04:46:42;17.83;;;10.93;;
1721;SDS011;858;53.190;8.596;2022-11-20T04:49:10;19.10;;;12.20;;
1721;SDS011;858;53.190;8.596;2022-11-20T04:51:37;18.10;;;12.70;;
1721;SDS011;858;53.190;8.596;2022-11-20T04:54:05;17.40;;;11.10;;
1721;SDS011;858;53.190;8.596;2022-11-20T04:56:32;14.20;;;10.77;;
1721;SDS011;858;53.190;8.596;2022-11-20T04:59:01;17.67;;;12.37;;
1721;SDS011;858;53.190;8.596;2022-11-20T05:01:28;16.83;;;11.20;;
1721;SDS011;858;53.190;8.596;2022-11-20T05:03:54;16.80;;;11.60;;
1721;SDS011;858;53.190;8.596;2022-11-20T05:06:20;17.70;;;11.70;;
1721;SDS011;858;53.190;8.596;2022-11-20T05:08:53;19.83;;;11.40;;
1721;SDS011;858;53.190;8.596;2022-11-20T05:11:20;15.07;;;10.33;;
1721;SDS011;858;53.190;8.596;2022-11-20T05:13:47;17.17;;;10.93;;
1721;SDS011;858;53.190;8.596;2022-11-20T05:16:16;16.17;;;11.00;;
1721;SDS011;858;53.190;8.596;2022-11-20T05:18:42;16.70;;;10.93;;
1721;SDS011;858;53.190;8.596;2022-11-20T05:21:09;20.77;;;12.40;;
1721;SDS011;858;53.190;8.596;2022-11-20T05:23:38;15.40;;;11.10;;
1721;SDS011;858;53.190;8.596;2022-11-20T05:26:06;17.77;;;11.73;;
1721;SDS011;858;53.190;8.596;2022-11-20T05:28:34;15.23;;;10.83;;
1721;SDS011;858;53.190;8.596;2022-11-20T05:31:05;16.03;;;11.53;;
1721;SDS011;858;53.190;8.596;2022-11-20T05:33:34;15.10;;;10.70;;
1721;SDS011;858;53.190;8.596;2022-11-20T05:36:01;18.47;;;11.80;;
1721;SDS011;858;53.190;8.596;2022-11-20T05:38:28;16.43;;;10.23;;
1721;SDS011;858;53.190;8.596;2022-11-20T05:41:02;16.10;;;10.77;;
1721;SDS011;858;53.190;8.596;2022-11-20T05:43:31;15.17;;;10.67;;
1721;SDS011;858;53.190;8.596;2022-11-20T05:46:00;15.30;;;10.70;;
1721;SDS011;858;53.190;8.596;2022-11-20T05:48:26;14.93;;;10.03;;
1721;SDS011;858;53.190;8.596;2022-11-20T05:50:56;15.17;;;11.13;;
1721;SDS011;858;53.190;8.596;2022-11-20T05:53:24;12.77;;;10.73;;
1721;SDS011;858;53.190;8.596;2022-11-20T05:55:57;15.60;;;10.90;;
1721;SDS011;858;53.190;8.596;2022-11-20T05:58:25;16.87;;;10.73;;
1721;SDS011;858;53.190;8.596;2022-11-20T06:00:54;15.60;;;10.83;;
1721;SDS011;858;53.190;8.596;2022-11-20T06:03:20;18.13;;;9.77;;
1721;SDS011;858;53.190;8.596;2022-11-20T06:05:46;15.87;;;11.13;;
1721;SDS011;858;53.190;8.596;2022-11-20T06:08:14;16.77;;;10.40;;
1721;SDS011;858;53.190;8.596;2022-11-20T06:10:41;17.10;;;10.80;;
1721;SDS011;858;53.190;8.596;2022-11-20T06:13:07;17.73;;;10.00;;
1721;SDS011;858;53.190;8.596;2022-11-20T06:15:34;12.40;;;9.00;;
1721;SDS011;858;53.190;8.596;2022-11-20T06:18:00;12.87;;;9.30;;
1721;SDS011;858;53.190;8.596;2022-11-20T06:20:28;15.50;;;10.53;;
1721;SDS011;858;53.190;8.596;2022-11-20T06:22:56;15.77;;;10.00;;
1721;SDS011;858;53.190;8.596;2022-11-20T06:25:27;15.97;;;11.17;;
1721;SDS011;858;53.190;8.596;2022-11-20T06:27:57;12.17;;;8.70;;
1721;SDS011;858;53.190;8.596;2022-11-20T06:30:25;14.20;;;9.40;;
1721;SDS011;858;53.190;8.596;2022-11-20T06:32:54;16.87;;;10.67;;
1721;SDS011;858;53.190;8.596;2022-11-20T06:35:20;16.33;;;10.53;;
1721;SDS011;858;53.190;8.596;2022-11-20T06:37:47;15.23;;;9.97;;
1721;SDS011;858;53.190;8.596;2022-11-20T06:40:13;13.53;;;10.00;;
1721;SDS011;858;53.190;8.596;2022-11-20T06:42:41;16.70;;;10.87;;
1721;SDS011;858;53.190;8.596;2022-11-20T06:45:10;12.13;;;9.50;;
1721;SDS011;858;53.190;8.596;2022-11-20T06:47:39;17.00;;;10.40;;
1721;SDS011;858;53.190;8.596;2022-11-20T06:50:08;14.70;;;10.70;;
1721;SDS011;858;53.190;8.596;2022-11-20T06:52:35;16.50;;;10.77;;
1721;SDS011;858;53.190;8.596;2022-11-20T06:55:01;16.37;;;9.90;;
1721;SDS011;858;53.190;8.596;2022-11-20T06:57:28;18.57;;;12.40;;
1721;SDS011;858;53.190;8.596;2022-11-20T06:59:57;22.97;;;15.60;;
1721;SDS011;858;53.190;8.596;2022-11-20T07:02:24;15.93;;;11.53;;
1721;SDS011;858;53.190;8.596;2022-11-20T07:04:54;30.13;;;20.13;;
1721;SDS011;858;53.190;8.596;2022-11-20T07:07:21;39.67;;;26.13;;
1721;SDS011;858;53.190;8.596;2022-11-20T07:09:48;40.30;;;24.33;;
1721;SDS011;858;53.190;8.596;2022-11-20T07:12:15;22.70;;;16.40;;
1721;SDS011;858;53.190;8.596;2022-11-20T07:14:45;21.10;;;12.10;;
1721;SDS011;858;53.190;8.596;2022-11-20T07:17:13;21.60;;;12.90;;
1721;SDS011;858;53.190;8.596;2022-11-20T07:19:39;22.13;;;13.80;;
1721;SDS011;858;53.190;8.596;2022-11-20T07:22:06;21.93;;;13.10;;
1721;SDS011;858;53.190;8.596;2022-11-20T07:24:46;18.57;;;12.83;;
1721;SDS011;858;53.190;8.596;2022-11-20T07:27:13;21.30;;;13.50;;
1721;SDS011;858;53.190;8.596;2022-11-20T07:29:39;16.80;;;12.70;;
1721;SDS011;858;53.190;8.596;2022-11-20T07:32:07;15.97;;;12.47;;
1721;SDS011;858;53.190;8.596;2022-11-20T07:34:37;19.10;;;12.40;;
1721;SDS011;858;53.190;8.596;2022-11-20T07:37:06;19.33;;;12.33;;
1721;SDS011;858;53.190;8.596;2022-11-20T07:39:33;19.17;;;11.90;;
1721;SDS011;858;53.190;8.596;2022-11-20T07:42:00;16.60;;;11.80;;
1721;SDS011;858;53.190;8.596;2022-11-20T07:44:26;21.87;;;12.50;;
1721;SDS011;858;53.190;8.596;2022-11-20T07:46:54;19.13;;;12.33;;
1721;SDS011;858;53.190;8.596;2022-11-20T07:49:21;18.60;;;12.20;;
1721;SDS011;858;53.190;8.596;2022-11-20T07:51:51;19.73;;;12.80;;
1721;SDS011;858;53.190;8.596;2022-11-20T07:54:19;16.57;;;11.63;;
1721;SDS011;858;53.190;8.596;2022-11-20T07:56:46;18.00;;;12.23;;
1721;SDS011;858;53.190;8.596;2022-11-20T07:59:12;22.40;;;13.50;;
1721;SDS011;858;53.190;8.596;2022-11-20T08:01:39;16.73;;;11.17;;
1721;SDS011;858;53.190;8.596;2022-11-20T08:04:07;16.60;;;11.53;;
1721;SDS011;858;53.190;8.596;2022-11-20T08:06:35;21.40;;;12.60;;
1721;SDS011;858;53.190;8.596;2022-11-20T08:09:03;15.07;;;10.23;;
1721;SDS011;858;53.190;8.596;2022-11-20T08:11:29;14.73;;;10.93;;
1721;SDS011;858;53.190;8.596;2022-11-20T08:14:13;21.53;;;12.63;;
1721;SDS011;858;53.190;8.596;2022-11-20T08:16:42;19.97;;;14.27;;
1721;SDS011;858;53.190;8.596;2022-11-20T08:19:09;18.57;;;13.33;;
1721;SDS011;858;53.190;8.596;2022-11-20T08:21:35;15.97;;;12.40;;
1721;SDS011;858;53.190;8.596;2022-11-20T08:24:04;17.80;;;13.17;;
1721;SDS011;858;53.190;8.596;2022-11-20T08:26:31;17.87;;;12.70;;
1721;SDS011;858;53.190;8.596;2022-11-20T08:28:57;21.43;;;14.40;;
1721;SDS011;858;53.190;8.596;2022-11-20T08:31:25;19.70;;;12.70;;
1721;SDS011;858;53.190;8.596;2022-11-20T08:33:52;15.50;;;11.70;;
1721;SDS011;858;53.190;8.596;2022-11-20T08:36:22;14.87;;;11.80;;
1721;SDS011;858;53.190;8.596;2022-11-20T08:38:49;18.97;;;13.40;;
1721;SDS011;858;53.190;8.596;2022-11-20T08:41:17;18.10;;;12.70;;
1721;SDS011;858;53.190;8.596;2022-11-20T08:43:51;20.67;;;13.20;;
1721;SDS011;858;53.190;8.596;2022-11-20T08:46:20;15.30;;;13.47;;
1721;SDS011;858;53.190;8.596;2022-11-20T08:48:46;18.73;;;13.93;;
1721;SDS011;858;53.190;8.596;2022-11-20T08:51:13;19.77;;;13.17;;
1721;SDS011;858;53.190;8.596;2022-11-20T08:53:39;19.57;;;12.97;;
1721;SDS011;858;53.190;8.596;2022-11-20T08:56:06;19.07;;;13.67;;
1721;SDS011;858;53.190;8.596;2022-11-20T08:58:37;25.03;;;15.80;;
1721;SDS011;858;53.190;8.596;2022-11-20T09:01:03;28.80;;;16.47;;
1721;SDS011;858;53.190;8.596;2022-11-20T09:03:30;26.03;;;17.23;;
1721;SDS011;858;53.190;8.596;2022-11-20T09:05:58;25.97;;;14.83;;
1721;SDS011;858;53.190;8.596;2022-11-20T09:08:25;19.10;;;14.07;;
1721;SDS011;858;53.190;8.596;2022-11-20T09:10:53;22.57;;;13.87;;
1721;SDS011;858;53.190;8.596;2022-11-20T09:13:20;19.30;;;13.80;;
1721;SDS011;858;53.190;8.596;2022-11-20T09:15:56;17.50;;;11.93;;
1721;SDS011;858;53.190;8.596;2022-11-20T09:18:26;21.37;;;13.63;;
1721;SDS011;858;53.190;8.596;2022-11-20T09:20:55;22.83;;;15.60;;
1721;SDS011;858;53.190;8.596;2022-11-20T09:23:24;20.07;;;14.80;;
1721;SDS011;858;53.190;8.596;2022-11-20T09:25:52;26.20;;;17.70;;
1721;SDS011;858;53.190;8.596;2022-11-20T09:28:20;24.67;;;17.00;;
1721;SDS011;858;53.190;8.596;2022-11-20T09:30:49;25.53;;;16.97;;
1721;SDS011;858;53.190;8.596;2022-11-20T09:33:17;21.87;;;17.27;;
1721;SDS011;858;53.190;8.596;2022-11-20T09:35:43;25.80;;;15.73;;
1721;SDS011;858;53.190;8.596;2022-11-20T09:38:10;23.80;;;14.00;;
1721;SDS011;858;53.190;8.596;2022-11-20T09:40:43;28.50;;;17.83;;
1721;SDS011;858;53.190;8.596;2022-11-20T09:43:14;24.87;;;17.10;;
1721;SDS011;858;53.190;8.596;2022-11-20T09:45:48;26.47;;;16.63;;
1721;SDS011;858;53.190;8.596;2022-11-20T09:51:21;31.50;;;21.63;;
1721;SDS011;858;53.190;8.596;2022-11-20T09:53:55;25.70;;;17.63;;
1721;SDS011;858;53.190;8.596;2022-11-20T09:56:24;27.13;;;21.20;;
1721;SDS011;858;53.190;8.596;2022-11-20T09:58:51;31.63;;;23.30;;
1721;SDS011;858;53.190;8.596;2022-11-20T10:01:20;77.40;;;56.53;;
1721;SDS011;858;53.190;8.596;2022-11-20T10:03:50;37.10;;;25.60;;
1721;SDS011;858;53.190;8.596;2022-11-20T10:06:20;26.70;;;17.90;;
1721;SDS011;858;53.190;8.596;2022-11-20T10:08:51;27.40;;;19.23;;
1721;SDS011;858;53.190;8.596;2022-11-20T10:11:23;25.60;;;17.80;;
1721;SDS011;858;53.190;8.596;2022-11-20T10:13:53;28.30;;;18.23;;
1721;SDS011;858;53.190;8.596;2022-11-20T10:16:25;26.87;;;18.00;;
1721;SDS011;858;53.190;8.596;2022-11-20T10:19:03;30.23;;;22.53;;
1721;SDS011;858;53.190;8.596;2022-11-20T10:21:35;21.57;;;15.73;;
1721;SDS011;858;53.190;8.596;2022-11-20T10:24:14;32.00;;;18.63;;
1721;SDS011;858;53.190;8.596;2022-11-20T10:26:47;29.13;;;20.40;;
1721;SDS011;858;53.190;8.596;2022-11-20T10:29:16;23.77;;;17.47;;
1721;SDS011;858;53.190;8.596;2022-11-20T10:31:44;23.70;;;17.00;;
1721;SDS011;858;53.190;8.596;2022-11-20T10:34:17;25.50;;;17.40;;
1721;SDS011;858;53.190;8.596;2022-11-20T10:36:47;28.23;;;18.57;;
1721;SDS011;858;53.190;8.596;2022-11-20T10:39:17;20.30;;;15.93;;
1721;SDS011;858;53.190;8.596;2022-11-20T10:41:44;26.63;;;16.90;;
1721;SDS011;858;53.190;8.596;2022-11-20T10:44:15;27.20;;;16.90;;
1721;SDS011;858;53.190;8.596;2022-11-20T10:47:03;25.93;;;16.63;;
1721;SDS011;858;53.190;8.596;2022-11-20T10:49:30;29.77;;;19.77;;
1721;SDS011;858;53.190;8.596;2022-11-20T10:51:59;23.77;;;15.90;;
1721;SDS011;858;53.190;8.596;2022-11-20T10:54:31;25.30;;;16.67;;
1721;SDS011;858;53.190;8.596;2022-11-20T10:57:00;24.70;;;17.23;;
1721;SDS011;858;53.190;8.596;2022-11-20T10:59:41;25.70;;;17.03;;
1721;SDS011;858;53.190;8.596;2022-11-20T11:02:16;25.00;;;16.90;;
1721;SDS011;858;53.190;8.596;2022-11-20T11:04:43;25.40;;;16.27;;
1721;SDS011;858;53.190;8.596;2022-11-20T11:07:14;24.17;;;16.63;;
1721;SDS011;858;53.190;8.596;2022-11-20T11:09:46;25.83;;;17.53;;
1721;SDS011;858;53.190;8.596;2022-11-20T11:12:13;27.87;;;17.60;;
1721;SDS011;858;53.190;8.596;2022-11-20T11:14:43;26.43;;;17.60;;
1721;SDS011;858;53.190;8.596;2022-11-20T11:17:18;22.97;;;15.97;;
1721;SDS011;858;53.190;8.596;2022-11-20T11:19:56;21.87;;;16.80;;
1721;SDS011;858;53.190;8.596;2022-11-20T11:22:23;26.57;;;17.17;;
1721;SDS011;858;53.190;8.596;2022-11-20T11:24:52;24.90;;;18.00;;
1721;SDS011;858;53.190;8.596;2022-11-20T11:27:19;30.60;;;17.07;;
1721;SDS011;858;53.190;8.596;2022-11-20T11:29:46;24.63;;;14.97;;
1721;SDS011;858;53.190;8.596;2022-11-20T11:32:13;24.73;;;15.63;;
1721;SDS011;858;53.190;8.596;2022-11-20T11:34:41;23.53;;;15.10;;
1721;SDS011;858;53.190;8.596;2022-11-20T11:37:10;21.93;;;14.73;;
1721;SDS011;858;53.190;8.596;2022-11-20T11:39:39;20.83;;;15.20;;
1721;SDS011;858;53.190;8.596;2022-11-20T11:42:09;19.73;;;13.43;;
1721;SDS011;858;53.190;8.596;2022-11-20T11:44:37;17.87;;;14.53;;
1721;SDS011;858;53.190;8.596;2022-11-20T11:47:29;85.63;;;35.67;;
1721;SDS011;858;53.190;8.596;2022-11-20T11:50:00;34.07;;;20.30;;
1721;SDS011;858;53.190;8.596;2022-11-20T11:52:30;29.53;;;20.27;;
1721;SDS011;858;53.190;8.596;2022-11-20T11:54:59;27.70;;;19.40;;
1721;SDS011;858;53.190;8.596;2022-11-20T11:57:38;20.40;;;14.63;;
1721;SDS011;858;53.190;8.596;2022-11-20T12:00:09;17.60;;;12.37;;
1721;SDS011;858;53.190;8.596;2022-11-20T12:02:37;23.43;;;14.57;;
1721;SDS011;858;53.190;8.596;2022-11-20T12:05:08;19.80;;;13.10;;
1721;SDS011;858;53.190;8.596;2022-11-20T12:07:38;16.37;;;12.60;;
1721;SDS011;858;53.190;8.596;2022-11-20T12:10:13;18.60;;;12.17;;
1721;SDS011;858;53.190;8.596;2022-11-20T12:12:42;17.30;;;12.10;;
1721;SDS011;858;53.190;8.596;2022-11-20T12:15:10;18.17;;;12.83;;
1721;SDS011;858;53.190;8.596;2022-11-20T12:17:38;19.03;;;12.50;;
1721;SDS011;858;53.190;8.596;2022-11-20T12:20:10;19.60;;;12.97;;
1721;SDS011;858;53.190;8.596;2022-11-20T12:22:40;20.27;;;12.60;;
1721;SDS011;858;53.190;8.596;2022-11-20T12:25:11;21.17;;;13.67;;
1721;SDS011;858;53.190;8.596;2022-11-20T12:30:29;28.60;;;17.37;;
1721;SDS011;858;53.190;8.596;2022-11-20T12:33:07;26.20;;;14.93;;
1721;SDS011;858;53.190;8.596;2022-11-20T12:35:38;25.20;;;15.40;;
1721;SDS011;858;53.190;8.596;2022-11-20T12:38:14;17.20;;;12.97;;
1721;SDS011;858;53.190;8.596;2022-11-20T12:40:52;17.77;;;12.20;;
1721;SDS011;858;53.190;8.596;2022-11-20T12:43:23;19.43;;;12.63;;
1721;SDS011;858;53.190;8.596;2022-11-20T12:49:00;18.60;;;13.43;;
1721;SDS011;858;53.190;8.596;2022-11-20T12:51:37;21.43;;;12.90;;
1721;SDS011;858;53.190;8.596;2022-11-20T12:54:24;17.73;;;12.57;;
1721;SDS011;858;53.190;8.596;2022-11-20T12:56:54;19.07;;;12.70;;
1721;SDS011;858;53.190;8.596;2022-11-20T12:59:26;23.00;;;14.43;;
1721;SDS011;858;53.190;8.596;2022-11-20T13:01:55;19.30;;;12.90;;
1721;SDS011;858;53.190;8.596;2022-11-20T13:04:31;20.73;;;12.87;;
1721;SDS011;858;53.190;8.596;2022-11-20T13:07:03;18.77;;;12.77;;
1721;SDS011;858;53.190;8.596;2022-11-20T13:09:31;20.50;;;11.63;;
1721;SDS011;858;53.190;8.596;2022-11-20T13:12:01;16.93;;;11.50;;
1721;SDS011;858;53.190;8.596;2022-11-20T13:14:31;19.40;;;12.80;;
1721;SDS011;858;53.190;8.596;2022-11-20T13:17:00;23.43;;;12.50;;
1721;SDS011;858;53.190;8.596;2022-11-20T13:19:32;18.90;;;12.23;;
1721;SDS011;858;53.190;8.596;2022-11-20T13:21:59;19.03;;;12.37;;
1721;SDS011;858;53.190;8.596;2022-11-20T13:24:26;20.53;;;12.30;;
1721;SDS011;858;53.190;8.596;2022-11-20T13:27:02;22.37;;;16.00;;
1721;SDS011;858;53.190;8.596;2022-11-20T13:29:29;17.33;;;11.83;;
1721;SDS011;858;53.190;8.596;2022-11-20T13:32:06;23.73;;;14.83;;
1721;SDS011;858;53.190;8.596;2022-11-20T13:34:35;28.80;;;16.47;;
1721;SDS011;858;53.190;8.596;2022-11-20T13:37:02;24.07;;;12.87;;
1721;SDS011;858;53.190;8.596;2022-11-20T13:39:30;45.73;;;23.70;;
1721;SDS011;858;53.190;8.596;2022-11-20T13:41:57;28.10;;;17.67;;
1721;SDS011;858;53.190;8.596;2022-11-20T13:44:25;24.47;;;15.10;;
1721;SDS011;858;53.190;8.596;2022-11-20T13:46:52;19.47;;;13.90;;
1721;SDS011;858;53.190;8.596;2022-11-20T13:49:21;20.40;;;13.20;;
1721;SDS011;858;53.190;8.596;2022-11-20T13:51:51;18.90;;;14.43;;
1721;SDS011;858;53.190;8.596;2022-11-20T13:54:41;18.00;;;12.00;;
1721;SDS011;858;53.190;8.596;2022-11-20T13:57:20;19.23;;;12.30;;
1721;SDS011;858;53.190;8.596;2022-11-20T13:59:56;15.83;;;11.40;;
1721;SDS011;858;53.190;8.596;2022-11-20T14:02:25;16.60;;;11.57;;
1721;SDS011;858;53.190;8.596;2022-11-20T14:04:53;18.40;;;11.07;;
1721;SDS011;858;53.190;8.596;2022-11-20T14:07:24;17.50;;;12.50;;
1721;SDS011;858;53.190;8.596;2022-11-20T14:09:51;18.57;;;13.40;;
1721;SDS011;858;53.190;8.596;2022-11-20T14:12:19;14.00;;;10.53;;
1721;SDS011;858;53.190;8.596;2022-11-20T14:14:50;20.13;;;12.50;;
1721;SDS011;858;53.190;8.596;2022-11-20T14:17:18;26.53;;;17.70;;
1721;SDS011;858;53.190;8.596;2022-11-20T14:19:45;21.90;;;14.87;;
1721;SDS011;858;53.190;8.596;2022-11-20T14:22:20;17.67;;;11.83;;
1721;SDS011;858;53.190;8.596;2022-11-20T14:24:49;19.73;;;13.47;;
1721;SDS011;858;53.190;8.596;2022-11-20T14:27:28;19.53;;;11.77;;
1721;SDS011;858;53.190;8.596;2022-11-20T14:29:55;41.17;;;23.33;;
1721;SDS011;858;53.190;8.596;2022-11-20T14:32:21;19.53;;;13.33;;
1721;SDS011;858;53.190;8.596;2022-11-20T14:34:48;23.30;;;14.07;;
1721;SDS011;858;53.190;8.596;2022-11-20T14:37:17;28.33;;;14.80;;
1721;SDS011;858;53.190;8.596;2022-11-20T14:39:49;22.30;;;13.77;;
1721;SDS011;858;53.190;8.596;2022-11-20T14:42:20;22.37;;;14.90;;
1721;SDS011;858;53.190;8.596;2022-11-20T14:44:47;19.10;;;13.70;;
1721;SDS011;858;53.190;8.596;2022-11-20T14:47:15;25.17;;;15.83;;
1721;SDS011;858;53.190;8.596;2022-11-20T14:49:43;18.63;;;13.93;;
1721;SDS011;858;53.190;8.596;2022-11-20T14:52:10;19.60;;;13.00;;
1721;SDS011;858;53.190;8.596;2022-11-20T14:54:42;21.63;;;14.30;;
1721;SDS011;858;53.190;8.596;2022-11-20T14:57:21;20.77;;;12.87;;
1721;SDS011;858;53.190;8.596;2022-11-20T14:59:49;23.30;;;13.87;;
1721;SDS011;858;53.190;8.596;2022-11-20T15:02:16;19.70;;;14.90;;
1721;SDS011;858;53.190;8.596;2022-11-20T15:04:46;18.67;;;13.63;;
1721;SDS011;858;53.190;8.596;2022-11-20T15:07:22;21.83;;;14.50;;
1721;SDS011;858;53.190;8.596;2022-11-20T15:09:58;24.60;;;14.30;;
1721;SDS011;858;53.190;8.596;2022-11-20T15:12:27;17.20;;;12.20;;
1721;SDS011;858;53.190;8.596;2022-11-20T15:14:54;19.53;;;13.30;;
1721;SDS011;858;53.190;8.596;2022-11-20T15:17:21;21.30;;;14.40;;
1721;SDS011;858;53.190;8.596;2022-11-20T15:19:49;24.37;;;14.73;;
1721;SDS011;858;53.190;8.596;2022-11-20T15:22:15;19.33;;;13.70;;
1721;SDS011;858;53.190;8.596;2022-11-20T15:24:42;21.17;;;13.80;;